createdAt,value
2019-04-22T00:00:55.710Z,12.17
2019-04-22T00:03:33.944Z,12.83
2019-04-22T00:06:19.086Z,13.20
2019-04-22T00:08:58.760Z,13.27
2019-04-22T00:11:28.863Z,12.23
2019-04-22T00:16:38.877Z,11.67
2019-04-22T00:19:15.369Z,11.57
2019-04-22T00:21:43.796Z,11.60
2019-04-22T00:24:10.650Z,11.77
2019-04-22T00:26:44.010Z,12.53
2019-04-22T00:29:37.326Z,12.30
2019-04-22T00:32:16.539Z,10.63
2019-04-22T00:34:48.394Z,11.40
2019-04-22T00:37:23.489Z,11.37
2019-04-22T00:39:53.929Z,10.67
2019-04-22T00:42:28.823Z,10.77
2019-04-22T00:47:36.064Z,10.33
2019-04-22T00:52:37.159Z,10.03
2019-04-22T00:55:11.981Z,10.13
2019-04-22T00:57:38.806Z,9.60
2019-04-22T01:00:14.619Z,9.90
2019-04-22T01:02:49.574Z,9.30
2019-04-22T01:05:16.491Z,9.80
2019-04-22T01:07:49.578Z,9.57
2019-04-22T01:10:25.582Z,10.20
2019-04-22T01:12:57.282Z,9.90
2019-04-22T01:15:30.558Z,9.83
2019-04-22T01:17:57.825Z,10.13
2019-04-22T01:23:05.808Z,9.33
2019-04-22T01:25:29.462Z,9.30
2019-04-22T01:28:01.267Z,10.07
2019-04-22T01:30:28.774Z,10.07
2019-04-22T01:32:53.875Z,10.43
2019-04-22T01:35:37.623Z,10.73
2019-04-22T01:38:16.142Z,9.97
2019-04-22T01:43:39.154Z,10.10
2019-04-22T01:46:02.700Z,9.93
2019-04-22T01:48:33.060Z,10.07
2019-04-22T01:51:00.902Z,10.10
2019-04-22T01:53:43.345Z,10.67
2019-04-22T01:56:07.258Z,10.30
2019-04-22T01:58:36.640Z,10.47
2019-04-22T02:01:13.607Z,10.90
2019-04-22T02:03:46.813Z,10.83
2019-04-22T02:06:24.629Z,10.70
2019-04-22T02:08:52.821Z,10.83
2019-04-22T02:11:29.280Z,10.07
2019-04-22T02:13:56.571Z,10.37
2019-04-22T02:17:21.025Z,10.20
2019-04-22T02:19:48.146Z,10.67
2019-04-22T02:22:27.567Z,10.67
2019-04-22T02:27:27.392Z,10.63
2019-04-22T02:29:52.297Z,10.33
2019-04-22T02:35:11.162Z,11.00
2019-04-22T02:37:35.359Z,10.60
2019-04-22T02:40:09.211Z,10.63
2019-04-22T02:42:35.093Z,10.50
2019-04-22T02:45:07.219Z,10.73
2019-04-22T02:47:47.561Z,9.80
2019-04-22T02:50:12.668Z,9.43
2019-04-22T02:52:42.682Z,9.40
2019-04-22T02:57:48.468Z,10.33
2019-04-22T03:03:11.356Z,9.77
2019-04-22T03:05:36.538Z,10.10
2019-04-22T03:08:09.896Z,10.37
2019-04-22T03:13:18.969Z,10.77
2019-04-22T03:15:42.515Z,11.60
2019-04-22T03:18:21.727Z,10.77
2019-04-22T03:20:50.309Z,10.70
2019-04-22T03:23:25.479Z,10.13
2019-04-22T03:28:30.956Z,9.67
2019-04-22T03:37:09.564Z,10.03
2019-04-22T03:39:31.943Z,10.50
2019-04-22T03:44:23.475Z,9.70
2019-04-22T03:46:53.151Z,10.33
2019-04-22T03:49:32.245Z,9.50
2019-04-22T03:51:56.740Z,9.90
2019-04-22T03:59:33.751Z,9.43
2019-04-22T04:02:02.073Z,9.57
2019-04-22T04:12:14.304Z,9.23
2019-04-22T04:19:58.655Z,7.90
2019-04-22T04:22:33.912Z,8.73
2019-04-22T04:25:19.602Z,8.97
2019-04-22T04:40:11.723Z,9.07
2019-04-22T04:42:42.699Z,8.60
2019-04-22T04:50:29.656Z,9.60
2019-04-22T04:58:13.031Z,9.60
2019-04-22T05:00:40.106Z,9.40
2019-04-22T05:03:13.798Z,9.17
2019-04-22T05:05:26.676Z,8.97
2019-04-22T05:10:44.770Z,8.43
2019-04-22T05:13:01.757Z,8.83
2019-04-22T05:15:32.994Z,9.53
2019-04-22T05:18:06.025Z,8.73
2019-04-22T05:23:07.033Z,9.33
2019-04-22T05:25:33.719Z,9.10
2019-04-22T05:28:11.816Z,8.87
2019-04-22T05:30:45.820Z,8.70
2019-04-22T05:33:14.335Z,8.70
2019-04-22T05:35:46.255Z,8.50
2019-04-22T05:38:30.801Z,7.93
2019-04-22T05:40:50.168Z,8.27
2019-04-22T05:43:32.922Z,7.50
2019-04-22T05:45:58.946Z,7.67
2019-04-22T05:48:33.091Z,8.07
2019-04-22T05:51:07.806Z,7.43
2019-04-22T05:53:37.217Z,8.00
2019-04-22T05:56:13.991Z,7.83
2019-04-22T05:58:46.471Z,7.77
2019-04-22T06:03:52.842Z,7.30
2019-04-22T06:08:51.239Z,7.80
2019-04-22T06:11:27.075Z,7.33
2019-04-22T06:13:56.075Z,7.40
2019-04-22T06:16:34.582Z,7.70
2019-04-22T06:19:07.683Z,7.87
2019-04-22T06:21:38.338Z,7.80
2019-04-22T06:24:16.631Z,7.93
2019-04-22T06:29:15.314Z,8.10
2019-04-22T06:34:27.044Z,8.30
2019-04-22T06:39:30.830Z,8.50
2019-04-22T06:42:04.851Z,9.30
2019-04-22T06:44:29.676Z,8.83
2019-04-22T06:46:56.436Z,8.60
2019-04-22T06:49:35.950Z,9.10
2019-04-22T06:52:08.079Z,8.77
2019-04-22T06:54:45.440Z,8.70
2019-04-22T06:57:06.199Z,8.80
2019-04-22T06:59:50.101Z,8.40
2019-04-22T07:02:16.539Z,8.40
2019-04-22T07:04:53.828Z,8.10
2019-04-22T07:07:20.158Z,7.60
2019-04-22T07:12:24.369Z,7.40
2019-04-22T07:14:54.614Z,7.33
2019-04-22T07:17:39.340Z,6.87
2019-04-22T07:19:58.411Z,7.23
2019-04-22T07:22:45.603Z,7.40
2019-04-22T07:25:03.119Z,6.77
2019-04-22T07:27:34.762Z,5.97
2019-04-22T07:32:58.079Z,6.90
2019-04-22T07:35:19.386Z,6.77
2019-04-22T07:37:43.614Z,5.80
2019-04-22T07:40:22.606Z,6.95
2019-04-22T07:42:49.360Z,6.03
2019-04-22T07:45:25.396Z,6.20
2019-04-22T07:48:06.092Z,6.00
2019-04-22T07:50:37.824Z,6.40
2019-04-22T07:52:56.970Z,6.27
2019-04-22T07:55:32.631Z,6.17
2019-04-22T07:58:05.330Z,5.80
2019-04-22T08:00:38.554Z,5.90
2019-04-22T08:03:11.825Z,5.17
2019-04-22T08:05:51.511Z,5.13
2019-04-22T08:08:23.098Z,5.73
2019-04-22T08:10:52.268Z,6.12
2019-04-22T08:13:17.230Z,5.80
2019-04-22T08:15:55.421Z,5.20
2019-04-22T08:18:28.378Z,5.40
2019-04-22T08:20:58.321Z,5.93
2019-04-22T08:23:31.770Z,5.33
2019-04-22T08:26:01.116Z,5.07
2019-04-22T08:28:41.234Z,5.30
2019-04-22T08:31:07.684Z,5.20
2019-04-22T08:33:44.521Z,5.20
2019-04-22T08:38:55.536Z,5.17
2019-04-22T08:41:30.166Z,5.07
2019-04-22T08:43:59.354Z,5.27
2019-04-22T08:46:34.172Z,5.10
2019-04-22T08:56:43.668Z,5.60
2019-04-22T08:59:12.525Z,5.40
2019-04-22T09:01:39.177Z,6.30
2019-04-22T09:04:11.632Z,5.43
2019-04-22T09:07:02.446Z,5.73
2019-04-22T09:09:22.559Z,5.40
2019-04-22T09:11:57.818Z,5.60
2019-04-22T09:14:26.707Z,5.40
2019-04-22T09:16:48.708Z,5.03
2019-04-22T09:19:24.215Z,4.77
2019-04-22T09:22:03.415Z,4.63
2019-04-22T09:24:29.523Z,4.67
2019-04-22T09:27:04.048Z,5.00
2019-04-22T09:29:41.154Z,4.70
2019-04-22T09:32:11.331Z,4.53
2019-04-22T09:34:40.181Z,4.70
2019-04-22T09:37:20.736Z,4.53
2019-04-22T09:39:51.630Z,4.17
2019-04-22T09:42:21.484Z,4.43
2019-04-22T09:44:57.221Z,4.53
2019-04-22T09:47:29.924Z,4.33
2019-04-22T09:50:01.542Z,4.10
2019-04-22T09:52:28.736Z,4.60
2019-04-22T09:55:06.118Z,4.53
2019-04-22T09:57:31.409Z,4.17
2019-04-22T10:02:40.686Z,4.23
2019-04-22T10:05:13.747Z,3.90
2019-04-22T10:07:43.249Z,4.30
2019-04-22T10:10:15.031Z,4.57
2019-04-22T10:12:42.877Z,4.40
2019-04-22T10:15:18.615Z,4.50
2019-04-22T10:17:54.490Z,4.93
2019-04-22T10:20:29.510Z,4.67
2019-04-22T10:22:59.215Z,4.37
2019-04-22T10:25:23.402Z,4.73
2019-04-22T10:28:08.998Z,4.90
2019-04-22T10:30:43.909Z,5.80
2019-04-22T10:33:04.586Z,5.73
2019-04-22T10:35:19.262Z,5.40
2019-04-22T10:37:48.108Z,5.87
2019-04-22T10:40:29.927Z,6.30
2019-04-22T10:43:01.245Z,5.87
2019-04-22T10:45:32.355Z,6.43
2019-04-22T10:48:04.000Z,6.20
2019-04-22T10:50:41.090Z,6.50
2019-04-22T10:53:13.432Z,6.17
2019-04-22T10:55:45.677Z,6.27
2019-04-22T10:58:17.113Z,6.30
2019-04-22T11:00:49.908Z,6.50
2019-04-22T11:03:20.457Z,6.13
2019-04-22T11:05:53.933Z,5.73
2019-04-22T11:08:32.662Z,4.60
2019-04-22T11:11:12.426Z,5.27
2019-04-22T11:13:28.371Z,5.10
2019-04-22T11:16:00.432Z,4.93
2019-04-22T11:18:31.698Z,4.80
2019-04-22T11:21:02.593Z,5.57
2019-04-22T11:23:34.362Z,5.03
2019-04-22T11:26:06.250Z,4.63
2019-04-22T11:28:38.058Z,5.10
2019-04-22T11:31:10.375Z,5.50
2019-04-22T11:33:42.679Z,5.20
2019-04-22T11:36:13.704Z,4.77
2019-04-22T11:38:49.048Z,4.90
2019-04-22T11:41:16.865Z,4.60
2019-04-22T11:43:47.471Z,4.37
2019-04-22T11:46:18.421Z,4.07
2019-04-22T11:48:49.924Z,4.50
2019-04-22T11:51:22.140Z,4.03
2019-04-22T11:53:52.894Z,3.73
2019-04-22T11:56:23.356Z,4.10
2019-04-22T11:58:55.228Z,4.10
2019-04-22T12:01:26.681Z,3.87
2019-04-22T12:03:57.994Z,3.87
2019-04-22T12:06:28.486Z,4.00
2019-04-22T12:08:59.592Z,3.77
2019-04-22T12:11:30.608Z,4.07
2019-04-22T12:14:02.130Z,4.20
2019-04-22T12:16:33.116Z,4.03
2019-04-22T12:19:04.935Z,3.33
2019-04-22T12:21:37.111Z,3.90
2019-04-22T12:24:09.097Z,3.13
2019-04-22T12:26:40.139Z,3.10
2019-04-22T12:29:11.166Z,3.10
2019-04-22T12:31:42.035Z,3.20
2019-04-22T12:34:13.276Z,3.57
2019-04-22T12:36:44.868Z,3.50
2019-04-22T12:39:15.829Z,4.00
2019-04-22T12:41:46.530Z,4.00
2019-04-22T12:44:18.067Z,4.10
2019-04-22T12:46:50.180Z,3.90
2019-04-22T12:49:22.473Z,4.20
2019-04-22T12:51:54.696Z,4.57
2019-04-22T12:54:26.797Z,4.27
2019-04-22T12:56:57.787Z,3.83
2019-04-22T12:59:29.798Z,4.03
2019-04-22T13:02:00.713Z,4.10
2019-04-22T13:04:32.261Z,3.83
2019-04-22T13:07:03.916Z,3.50
2019-04-22T13:09:38.978Z,3.67
2019-04-22T13:12:10.986Z,3.93
2019-04-22T13:14:43.385Z,4.50
2019-04-22T13:17:15.309Z,4.40
2019-04-22T13:19:47.543Z,4.17
2019-04-22T13:22:19.080Z,4.53
2019-04-22T13:24:49.927Z,4.23
2019-04-22T13:27:21.225Z,4.63
2019-04-22T13:29:53.029Z,4.33
2019-04-22T13:32:25.019Z,4.80
2019-04-22T13:34:59.939Z,4.70
2019-04-22T13:37:28.616Z,4.43
2019-04-22T13:40:01.281Z,4.90
2019-04-22T13:42:33.408Z,4.90
2019-04-22T13:45:04.910Z,5.73
2019-04-22T13:47:55.707Z,5.77
2019-04-22T13:50:47.611Z,5.47
2019-04-22T13:53:21.960Z,5.77
2019-04-22T13:57:58.404Z,5.87
2019-04-22T14:00:24.940Z,5.70
2019-04-22T14:03:34.302Z,5.80
2019-04-22T14:06:06.760Z,6.70
2019-04-22T14:08:37.664Z,6.33
2019-04-22T14:11:17.057Z,6.93
2019-04-22T14:13:41.722Z,7.43
2019-04-22T14:16:13.297Z,7.30
2019-04-22T14:18:45.936Z,7.80
2019-04-22T14:21:18.855Z,7.27
2019-04-22T14:23:50.936Z,6.43
2019-04-22T14:26:23.102Z,7.97
2019-04-22T14:28:55.606Z,8.77
2019-04-22T14:31:26.763Z,7.57
2019-04-22T14:34:01.732Z,7.10
2019-04-22T14:36:30.721Z,7.73
2019-04-22T14:39:02.014Z,7.57
2019-04-22T14:41:49.023Z,8.60
2019-04-22T14:47:09.230Z,7.43
2019-04-22T14:49:40.243Z,7.20
2019-04-22T14:52:13.335Z,7.20
2019-04-22T14:54:31.025Z,7.20
2019-04-22T14:56:48.648Z,6.47
2019-04-22T14:59:19.136Z,6.90
2019-04-22T15:01:49.840Z,7.00
2019-04-22T15:04:21.242Z,7.57
2019-04-22T15:06:52.732Z,7.10
2019-04-22T15:09:24.096Z,7.83
2019-04-22T15:12:08.337Z,7.50
2019-04-22T15:14:27.686Z,8.50
2019-04-22T15:17:20.832Z,7.47
2019-04-22T15:20:05.910Z,8.23
2019-04-22T15:22:36.912Z,8.40
2019-04-22T15:25:08.369Z,6.90
2019-04-22T15:27:41.559Z,8.93
2019-04-22T15:30:13.386Z,8.10
2019-04-22T15:32:45.524Z,8.20
2019-04-22T15:35:17.494Z,8.80
2019-04-22T15:37:48.998Z,8.13
2019-04-22T15:40:20.644Z,8.13
2019-04-22T15:42:52.886Z,8.93
2019-04-22T15:45:24.363Z,8.47
2019-04-22T15:47:57.909Z,8.07
2019-04-22T15:50:28.729Z,8.00
2019-04-22T15:53:01.156Z,7.83
2019-04-22T15:55:32.532Z,8.50
2019-04-22T15:58:05.836Z,7.20
2019-04-22T16:00:49.119Z,10.20
2019-04-22T16:03:12.356Z,8.37
2019-04-22T16:05:44.133Z,8.57
2019-04-22T16:08:15.083Z,8.10
2019-04-22T16:10:46.528Z,8.07
2019-04-22T16:13:22.425Z,8.57
2019-04-22T16:15:49.801Z,8.07
2019-04-22T16:18:22.278Z,8.67
2019-04-22T16:20:54.311Z,8.30
2019-04-22T16:23:46.772Z,8.30
2019-04-22T16:26:36.086Z,9.20
2019-04-22T16:29:09.381Z,9.10
2019-04-22T16:31:40.597Z,8.77
2019-04-22T16:34:13.181Z,8.40
2019-04-22T16:36:45.191Z,8.77
2019-04-22T16:39:16.141Z,8.33
2019-04-22T16:41:48.519Z,9.10
2019-04-22T16:44:20.573Z,8.70
2019-04-22T16:46:51.942Z,8.50
2019-04-22T16:49:25.450Z,8.73
2019-04-22T16:51:56.399Z,8.43
2019-04-22T16:54:27.926Z,9.30
2019-04-22T16:56:59.790Z,8.97
2019-04-22T16:59:30.760Z,9.27
2019-04-22T17:02:12.782Z,9.57
2019-04-22T17:05:02.012Z,9.17
2019-04-22T17:07:34.131Z,9.10
2019-04-22T17:10:08.249Z,9.37
2019-04-22T17:12:48.726Z,9.17
2019-04-22T17:15:14.308Z,9.67
2019-04-22T17:17:45.305Z,9.77
2019-04-22T17:20:17.432Z,9.93
2019-04-22T17:22:49.309Z,9.80
2019-04-22T17:25:20.551Z,9.67
2019-04-22T17:27:52.003Z,9.97
2019-04-22T17:30:24.284Z,10.30
2019-04-22T17:32:56.691Z,9.33
2019-04-22T17:35:28.714Z,10.37
2019-04-22T17:38:09.247Z,9.47
2019-04-22T17:40:49.590Z,9.67
2019-04-22T17:43:36.213Z,10.27
2019-04-22T17:45:59.917Z,10.10
2019-04-22T17:48:50.625Z,10.67
2019-04-22T17:51:29.843Z,9.90
2019-04-22T17:53:59.865Z,9.57
2019-04-22T17:56:27.655Z,9.93
2019-04-22T17:58:58.796Z,9.63
2019-04-22T18:01:29.664Z,10.27
2019-04-22T18:03:49.713Z,10.07
2019-04-22T18:06:45.388Z,10.63
2019-04-22T18:09:05.343Z,10.27
2019-04-22T18:11:46.256Z,10.53
2019-04-22T18:14:39.943Z,10.70
2019-04-22T18:16:49.958Z,10.50
2019-04-22T18:19:21.071Z,10.40
2019-04-22T18:21:50.214Z,10.23
2019-04-22T18:24:13.014Z,10.70
2019-04-22T18:26:57.806Z,10.70
2019-04-22T18:29:28.347Z,10.17
2019-04-22T18:31:53.894Z,10.17
2019-04-22T18:34:25.670Z,9.27
2019-04-22T18:37:05.824Z,9.97
2019-04-22T18:39:42.458Z,10.33
2019-04-22T18:42:07.511Z,9.70
2019-04-22T18:44:49.425Z,9.90
2019-04-22T18:47:11.708Z,9.73
2019-04-22T18:49:46.010Z,10.33
2019-04-22T18:52:48.027Z,10.20
2019-04-22T18:55:38.734Z,10.53
2019-04-22T18:58:14.523Z,10.67
2019-04-22T19:00:36.597Z,11.60
2019-04-22T19:03:15.947Z,11.07
2019-04-22T19:06:11.746Z,10.90
2019-04-22T19:08:31.567Z,10.53
2019-04-22T19:11:20.971Z,11.37
2019-04-22T19:14:00.714Z,10.57
2019-04-22T19:16:25.558Z,10.77
2019-04-22T19:18:50.442Z,11.37
2019-04-22T19:21:15.051Z,11.10
2019-04-22T19:23:53.991Z,11.23
2019-04-22T19:26:40.988Z,11.17
2019-04-22T19:28:58.780Z,11.60
2019-04-22T19:31:29.909Z,11.47
2019-04-22T19:34:03.327Z,12.00
2019-04-22T19:36:43.446Z,12.23
2019-04-22T19:39:08.003Z,13.10
2019-04-22T19:41:42.273Z,12.13
2019-04-22T19:44:13.164Z,13.00
2019-04-22T19:46:55.653Z,12.87
2019-04-22T19:49:29.050Z,12.30
2019-04-22T19:52:02.045Z,12.43
2019-04-22T19:54:24.424Z,12.23
2019-04-22T19:56:45.708Z,11.60
2019-04-22T19:59:23.559Z,11.93
2019-04-22T20:02:15.901Z,11.70
2019-04-22T20:05:06.417Z,11.60
2019-04-22T20:07:40.622Z,11.63
2019-04-22T20:10:16.226Z,10.77
2019-04-22T20:12:42.483Z,10.90
2019-04-22T20:15:19.908Z,11.23
2019-04-22T20:18:15.625Z,11.47
2019-04-22T20:20:31.687Z,11.50
2019-04-22T20:22:57.636Z,11.07
2019-04-22T20:25:30.641Z,11.17
2019-04-22T20:28:08.435Z,11.17
2019-04-22T20:30:39.974Z,11.60
2019-04-22T20:33:01.887Z,11.83
2019-04-22T20:35:43.517Z,12.20
2019-04-22T20:38:16.348Z,11.93
2019-04-22T20:40:42.657Z,11.27
2019-04-22T20:43:22.139Z,11.27
2019-04-22T20:45:51.271Z,10.40
2019-04-22T20:48:10.346Z,10.40
2019-04-22T20:50:52.936Z,9.83
2019-04-22T20:53:34.432Z,9.70
2019-04-22T20:56:01.052Z,9.50
2019-04-22T20:58:34.320Z,9.03
2019-04-22T21:00:55.732Z,8.83
2019-04-22T21:03:26.661Z,8.80
2019-04-22T21:06:06.003Z,8.93
2019-04-22T21:08:42.363Z,9.77
2019-04-22T21:11:07.854Z,9.40
2019-04-22T21:13:39.761Z,9.50
2019-04-22T21:16:21.737Z,9.03
2019-04-22T21:18:44.223Z,9.73
2019-04-22T21:21:19.663Z,8.83
2019-04-22T21:23:45.836Z,9.20
2019-04-22T21:26:24.305Z,9.30
2019-04-22T21:28:53.756Z,9.13
2019-04-22T21:31:33.729Z,9.63
2019-04-22T21:33:56.138Z,9.27
2019-04-22T21:36:38.077Z,8.83
2019-04-22T21:39:03.846Z,9.00
2019-04-22T21:41:37.501Z,9.23
2019-04-22T21:44:10.320Z,9.23
2019-04-22T21:46:47.882Z,9.00
2019-04-22T21:49:21.691Z,9.17
2019-04-22T21:51:53.562Z,8.33
2019-04-22T21:54:26.982Z,9.00
2019-04-22T21:57:19.248Z,9.37
2019-04-22T21:59:43.184Z,9.17
2019-04-22T22:02:24.894Z,9.00
2019-04-22T22:04:48.948Z,9.97
2019-04-22T22:07:12.960Z,9.93
2019-04-22T22:09:54.227Z,9.60
2019-04-22T22:12:35.035Z,10.13
2019-04-22T22:15:04.035Z,9.87
2019-04-22T22:17:31.298Z,10.47
2019-04-22T22:20:03.508Z,9.87
2019-04-22T22:25:17.802Z,10.40
2019-04-22T22:27:40.693Z,10.40
2019-04-22T22:32:49.814Z,9.83
2019-04-22T22:35:20.559Z,10.17
2019-04-22T22:37:50.604Z,10.40
2019-04-22T22:40:09.295Z,9.77
2019-04-22T22:42:40.426Z,10.03
2019-04-22T22:45:17.477Z,10.20
2019-04-22T22:48:09.670Z,10.30
2019-04-22T22:50:34.736Z,10.27
2019-04-22T22:53:17.220Z,10.30
2019-04-22T22:55:34.435Z,10.10
2019-04-22T22:58:14.295Z,10.03
2019-04-22T23:00:40.922Z,9.83
2019-04-22T23:05:54.985Z,10.17
2019-04-22T23:08:20.379Z,10.00
2019-04-22T23:11:05.653Z,9.73
2019-04-22T23:13:26.038Z,9.83
2019-04-22T23:15:50.895Z,8.73
2019-04-22T23:18:07.819Z,9.63
2019-04-22T23:20:45.142Z,9.53
2019-04-22T23:23:36.442Z,9.40
2019-04-22T23:26:07.364Z,8.77
2019-04-22T23:28:43.509Z,9.33
2019-04-22T23:31:23.618Z,9.63
2019-04-22T23:34:06.728Z,9.03
2019-04-22T23:37:07.283Z,8.77
2019-04-22T23:39:40.342Z,8.40
2019-04-22T23:42:15.933Z,8.20
2019-04-22T23:44:42.229Z,7.70
2019-04-22T23:47:21.174Z,7.53
2019-04-22T23:50:03.752Z,8.17
2019-04-22T23:52:35.931Z,8.03
2019-04-22T23:55:18.720Z,7.80
2019-04-22T23:57:55.743Z,7.63
